createdAt,value
2023-04-07T00:00:58.653Z,7.76
2023-04-07T00:03:28.456Z,7.63
2023-04-07T00:05:57.046Z,7.48
2023-04-07T00:08:25.939Z,7.40
2023-04-07T00:10:54.614Z,7.63
2023-04-07T00:13:23.333Z,8.05
2023-04-07T00:15:51.847Z,8.16
2023-04-07T00:18:27.583Z,8.12
2023-04-07T00:20:55.833Z,8.03
2023-04-07T00:23:24.326Z,7.88
2023-04-07T00:25:52.556Z,7.70
2023-04-07T00:28:20.887Z,7.51
2023-04-07T00:30:53.566Z,7.37
2023-04-07T00:33:24.136Z,7.25
2023-04-07T00:35:52.450Z,7.19
2023-04-07T00:38:21.048Z,7.08
2023-04-07T00:40:49.232Z,7.01
2023-04-07T00:43:19.826Z,7.28
2023-04-07T00:45:48.127Z,7.63
2023-04-07T00:48:16.417Z,7.84
2023-04-07T00:50:46.067Z,7.89
2023-04-07T00:53:14.597Z,7.72
2023-04-07T00:55:44.050Z,7.54
2023-04-07T00:58:13.720Z,7.39
2023-04-07T01:01:12.273Z,7.31
2023-04-07T01:03:49.782Z,7.16
2023-04-07T01:06:24.653Z,7.01
2023-04-07T01:09:02.111Z,6.90
2023-04-07T01:11:35.688Z,6.81
2023-04-07T01:14:06.386Z,6.75
2023-04-07T01:17:02.048Z,7.07
2023-04-07T01:19:56.527Z,7.53
2023-04-07T01:22:35.492Z,7.59
2023-04-07T01:25:25.955Z,7.54
2023-04-07T01:28:26.486Z,7.39
2023-04-07T01:30:58.549Z,7.15
2023-04-07T01:33:32.467Z,7.04
2023-04-07T01:36:02.479Z,6.86
2023-04-07T01:38:32.083Z,6.70
2023-04-07T01:41:02.074Z,6.62
2023-04-07T01:43:32.735Z,6.47
2023-04-07T01:46:05.632Z,6.42
2023-04-07T01:48:36.865Z,6.76
2023-04-07T01:51:06.678Z,7.07
2023-04-07T01:53:38.088Z,7.32
2023-04-07T01:56:07.119Z,7.29
2023-04-07T01:58:37.740Z,7.19
2023-04-07T02:01:09.011Z,7.09
2023-04-07T02:04:25.994Z,6.91
2023-04-07T02:07:04.402Z,6.70
2023-04-07T02:09:41.031Z,6.60
2023-04-07T02:12:14.706Z,6.49
2023-04-07T02:14:48.022Z,6.35
2023-04-07T02:17:28.435Z,6.28
2023-04-07T02:19:59.491Z,6.21
2023-04-07T02:22:29.126Z,6.14
2023-04-07T02:24:57.721Z,6.11
2023-04-07T02:27:27.982Z,6.06
2023-04-07T02:29:56.685Z,6.01
2023-04-07T02:32:25.824Z,6.22
2023-04-07T02:34:54.385Z,6.67
2023-04-07T02:37:22.876Z,6.96
2023-04-07T02:39:51.785Z,6.98
2023-04-07T02:42:22.033Z,6.90
2023-04-07T02:44:50.941Z,6.82
2023-04-07T02:47:19.207Z,6.73
2023-04-07T02:49:47.520Z,6.55
2023-04-07T02:52:15.907Z,6.45
2023-04-07T02:54:47.518Z,6.34
2023-04-07T02:57:16.539Z,6.28
2023-04-07T02:59:46.461Z,6.22
2023-04-07T03:02:15.720Z,6.14
2023-04-07T03:04:44.876Z,6.08
2023-04-07T03:07:14.463Z,6.00
2023-04-07T03:09:45.300Z,5.94
2023-04-07T03:12:16.441Z,5.88
2023-04-07T03:14:45.630Z,5.81
2023-04-07T03:17:18.841Z,5.78
2023-04-07T03:19:52.017Z,5.76
2023-04-07T03:22:20.711Z,5.76
2023-04-07T03:24:51.661Z,5.75
2023-04-07T03:27:21.268Z,5.75
2023-04-07T03:29:53.394Z,6.01
2023-04-07T03:32:24.257Z,6.49
2023-04-07T03:34:52.585Z,6.73
2023-04-07T03:37:21.110Z,6.78
2023-04-07T03:39:52.087Z,6.70
2023-04-07T03:42:28.601Z,6.61
2023-04-07T03:45:01.808Z,6.49
2023-04-07T03:47:31.135Z,6.39
2023-04-07T03:50:02.811Z,6.31
2023-04-07T03:52:32.985Z,6.21
2023-04-07T03:55:08.346Z,6.17
2023-04-07T03:57:36.926Z,6.15
2023-04-07T04:00:06.132Z,6.11
2023-04-07T04:02:45.150Z,6.08
2023-04-07T04:05:16.806Z,6.10
2023-04-07T04:07:46.229Z,6.14
2023-04-07T04:10:16.547Z,6.16
2023-04-07T04:12:50.092Z,6.19
2023-04-07T04:15:20.984Z,6.21
2023-04-07T04:17:51.137Z,6.26
2023-04-07T04:20:20.088Z,6.67
2023-04-07T04:22:51.474Z,7.30
2023-04-07T04:25:20.162Z,7.50
2023-04-07T04:27:51.199Z,7.53
2023-04-07T04:30:22.826Z,7.51
2023-04-07T04:32:54.866Z,7.52
2023-04-07T04:35:34.493Z,7.52
2023-04-07T04:38:11.820Z,7.50
2023-04-07T04:40:48.398Z,7.47
2023-04-07T04:43:18.516Z,7.53
2023-04-07T04:45:47.880Z,7.64
2023-04-07T04:48:17.580Z,7.76
2023-04-07T04:50:46.424Z,7.85
2023-04-07T04:53:21.438Z,8.00
2023-04-07T04:56:02.224Z,8.13
2023-04-07T04:58:51.040Z,8.29
2023-04-07T05:01:32.814Z,8.49
2023-04-07T05:04:14.063Z,8.71
2023-04-07T05:06:46.755Z,8.89
2023-04-07T05:09:17.649Z,9.07
2023-04-07T05:11:48.184Z,9.14
2023-04-07T05:14:16.566Z,9.14
2023-04-07T05:16:49.443Z,9.10
2023-04-07T05:19:22.359Z,9.09
2023-04-07T05:21:51.556Z,9.06
2023-04-07T05:24:21.404Z,9.06
2023-04-07T05:26:54.656Z,9.21
2023-04-07T05:29:23.538Z,9.34
2023-04-07T05:31:52.653Z,9.63
2023-04-07T05:34:21.519Z,9.93
2023-04-07T05:36:53.087Z,10.19
2023-04-07T05:39:22.412Z,10.41
2023-04-07T05:41:52.780Z,10.76
2023-04-07T05:44:23.061Z,11.16
2023-04-07T05:46:52.073Z,11.50
2023-04-07T05:49:21.718Z,11.88
2023-04-07T05:51:54.566Z,12.33
2023-04-07T05:54:22.917Z,12.92
2023-04-07T05:56:52.210Z,13.65
2023-04-07T05:59:21.898Z,14.47
2023-04-07T06:01:58.080Z,15.37
2023-04-07T06:04:27.641Z,16.21
2023-04-07T06:06:56.153Z,16.91
2023-04-07T06:09:26.820Z,17.51
2023-04-07T06:11:56.972Z,18.14
2023-04-07T06:14:25.970Z,18.48
2023-04-07T06:16:56.565Z,18.60
2023-04-07T06:19:27.922Z,18.40
2023-04-07T06:21:56.131Z,18.01
2023-04-07T06:24:25.424Z,17.61
2023-04-07T06:26:54.971Z,17.14
2023-04-07T06:29:23.286Z,16.67
2023-04-07T06:31:52.890Z,16.15
2023-04-07T06:34:21.611Z,15.72
2023-04-07T06:36:50.514Z,15.41
2023-04-07T06:39:20.185Z,15.14
2023-04-07T06:41:48.483Z,14.85
2023-04-07T06:44:16.877Z,14.64
2023-04-07T06:46:47.590Z,14.40
2023-04-07T06:49:19.675Z,14.15
2023-04-07T06:51:48.185Z,14.00
2023-04-07T06:54:16.741Z,13.77
2023-04-07T06:56:45.240Z,13.65
2023-04-07T06:59:13.747Z,13.57
2023-04-07T07:01:42.488Z,13.51
2023-04-07T07:04:11.282Z,13.34
2023-04-07T07:06:40.139Z,13.28
2023-04-07T07:09:09.248Z,13.12
2023-04-07T07:11:44.993Z,13.08
2023-04-07T07:14:13.856Z,13.02
2023-04-07T07:16:42.339Z,12.95
2023-04-07T07:19:17.551Z,12.82
2023-04-07T07:21:46.985Z,12.65
2023-04-07T07:24:15.610Z,12.56
2023-04-07T07:26:46.114Z,12.49
2023-04-07T07:29:14.332Z,12.43
2023-04-07T07:31:43.676Z,12.35
2023-04-07T07:34:12.131Z,12.26
2023-04-07T07:36:40.787Z,12.25
2023-04-07T07:39:09.504Z,12.23
2023-04-07T07:41:38.007Z,12.26
2023-04-07T07:44:08.206Z,12.26
2023-04-07T07:46:36.646Z,12.25
2023-04-07T07:49:06.520Z,12.25
2023-04-07T07:51:35.254Z,12.24
2023-04-07T07:54:03.612Z,12.20
2023-04-07T07:56:32.401Z,12.16
2023-04-07T07:59:01.003Z,12.07
2023-04-07T08:01:29.700Z,11.95
2023-04-07T08:03:59.042Z,11.85
2023-04-07T08:06:29.416Z,11.78
2023-04-07T08:08:59.024Z,11.74
2023-04-07T08:11:28.326Z,11.75
2023-04-07T08:13:56.806Z,11.83
2023-04-07T08:16:27.150Z,11.79
2023-04-07T08:18:55.541Z,11.74
2023-04-07T08:21:23.820Z,11.75
2023-04-07T08:23:54.010Z,11.68
2023-04-07T08:26:22.555Z,11.70
2023-04-07T08:28:53.964Z,11.70
2023-04-07T08:31:22.549Z,11.67
2023-04-07T08:33:54.488Z,11.70
2023-04-07T08:36:26.619Z,11.71
2023-04-07T08:38:55.093Z,11.54
2023-04-07T08:41:41.096Z,11.31
2023-04-07T08:44:10.773Z,11.00
2023-04-07T08:46:40.601Z,10.62
2023-04-07T08:49:11.420Z,10.48
2023-04-07T08:51:47.740Z,10.57
2023-04-07T08:54:22.719Z,10.61
2023-04-07T08:56:53.797Z,10.72
2023-04-07T08:59:26.959Z,10.82
2023-04-07T09:01:56.666Z,10.85
2023-04-07T09:04:25.696Z,10.86
2023-04-07T09:06:54.272Z,10.86
2023-04-07T09:09:22.773Z,10.89
2023-04-07T09:11:53.762Z,10.81
2023-04-07T09:14:22.259Z,10.77
2023-04-07T09:16:50.939Z,10.87
2023-04-07T09:19:24.924Z,10.93
2023-04-07T09:21:53.901Z,10.91
2023-04-07T09:24:24.462Z,10.90
2023-04-07T09:27:18.021Z,10.82
2023-04-07T09:29:49.823Z,10.88
2023-04-07T09:32:41.675Z,10.94
2023-04-07T09:35:10.673Z,10.96
2023-04-07T09:37:39.872Z,11.01
2023-04-07T09:40:09.305Z,10.98
2023-04-07T09:42:46.493Z,11.00
2023-04-07T09:45:34.112Z,10.98
2023-04-07T09:48:24.997Z,10.85
2023-04-07T09:51:05.832Z,10.88
2023-04-07T09:53:49.207Z,10.91
2023-04-07T09:56:22.597Z,10.83
2023-04-07T09:58:54.115Z,10.67
2023-04-07T10:01:23.002Z,10.69
2023-04-07T10:03:53.087Z,10.73
2023-04-07T10:06:22.053Z,10.81
2023-04-07T10:08:52.649Z,10.83
2023-04-07T10:11:21.401Z,10.90
2023-04-07T10:13:49.959Z,10.98
2023-04-07T10:16:22.832Z,10.96
2023-04-07T10:18:53.270Z,10.99
2023-04-07T10:21:22.947Z,11.05
2023-04-07T10:24:05.033Z,11.14
2023-04-07T10:26:35.806Z,11.15
2023-04-07T10:29:08.649Z,11.10
2023-04-07T10:31:39.449Z,11.06
2023-04-07T10:34:13.290Z,11.06
2023-04-07T10:37:13.864Z,11.03
2023-04-07T10:39:42.380Z,11.06
2023-04-07T10:42:39.034Z,11.00
2023-04-07T10:45:11.234Z,10.99
2023-04-07T10:47:58.568Z,11.00
2023-04-07T10:50:28.657Z,11.04
2023-04-07T10:53:14.149Z,11.10
2023-04-07T10:55:46.850Z,11.14
2023-04-07T10:58:31.958Z,11.22
2023-04-07T11:01:00.848Z,11.28
2023-04-07T11:03:35.002Z,11.29
2023-04-07T11:06:08.545Z,11.33
2023-04-07T11:08:49.640Z,11.30
2023-04-07T11:11:38.988Z,11.35
2023-04-07T11:14:07.620Z,11.42
2023-04-07T11:16:41.958Z,11.40
2023-04-07T11:19:13.156Z,11.39
2023-04-07T11:21:41.875Z,11.41
2023-04-07T11:24:10.273Z,11.40
2023-04-07T11:26:40.945Z,11.40
2023-04-07T11:29:09.430Z,11.40
2023-04-07T11:31:38.765Z,11.44
2023-04-07T11:34:07.838Z,11.44
2023-04-07T11:36:40.160Z,11.45
2023-04-07T11:39:22.095Z,11.44
2023-04-07T11:41:51.238Z,11.45
2023-04-07T11:44:20.255Z,11.46
2023-04-07T11:46:56.643Z,11.47
2023-04-07T11:49:28.741Z,11.44
2023-04-07T11:52:07.008Z,11.42
2023-04-07T11:54:53.235Z,11.43
2023-04-07T11:57:30.144Z,11.45
2023-04-07T12:00:09.621Z,11.50
2023-04-07T12:02:38.634Z,11.58
2023-04-07T12:05:07.571Z,11.58
2023-04-07T12:07:38.656Z,11.59
2023-04-07T12:10:25.836Z,11.64
2023-04-07T12:12:56.905Z,11.70
2023-04-07T12:15:26.683Z,11.73
2023-04-07T12:17:55.782Z,11.74
2023-04-07T12:20:27.875Z,11.79
2023-04-07T12:23:00.145Z,11.78
2023-04-07T12:25:28.367Z,11.84
2023-04-07T12:28:02.353Z,11.88
2023-04-07T12:30:31.050Z,11.92
2023-04-07T12:32:59.806Z,11.93
2023-04-07T12:35:28.908Z,11.97
2023-04-07T12:37:57.213Z,11.99
2023-04-07T12:40:27.615Z,12.05
2023-04-07T12:42:58.378Z,12.05
2023-04-07T12:45:26.678Z,12.00
2023-04-07T12:47:55.978Z,12.00
2023-04-07T12:50:25.433Z,12.07
2023-04-07T12:52:54.998Z,12.13
2023-04-07T12:55:23.420Z,12.14
2023-04-07T12:57:51.854Z,12.18
2023-04-07T13:00:21.049Z,12.20
2023-04-07T13:02:50.946Z,12.22
2023-04-07T13:05:19.705Z,12.25
2023-04-07T13:07:50.530Z,12.27
2023-04-07T13:10:18.983Z,12.34
2023-04-07T13:12:48.640Z,12.40
2023-04-07T13:15:17.721Z,12.41
2023-04-07T13:17:47.416Z,12.44
2023-04-07T13:20:19.779Z,12.47
2023-04-07T13:22:59.273Z,12.51
2023-04-07T13:25:34.525Z,12.56
2023-04-07T13:28:03.579Z,12.56
2023-04-07T13:30:32.023Z,12.55
2023-04-07T13:33:01.149Z,12.60
2023-04-07T13:35:31.170Z,12.60
2023-04-07T13:37:59.592Z,12.60
2023-04-07T13:40:27.784Z,12.69
2023-04-07T13:42:57.597Z,12.76
2023-04-07T13:45:25.905Z,12.84
2023-04-07T13:47:56.823Z,12.88
2023-04-07T13:50:26.009Z,12.97
2023-04-07T13:52:54.336Z,13.08
2023-04-07T13:55:22.555Z,13.12
2023-04-07T13:57:50.973Z,13.07
2023-04-07T14:00:19.610Z,13.07
2023-04-07T14:03:08.517Z,13.05
2023-04-07T14:05:37.178Z,13.09
2023-04-07T14:08:06.581Z,13.13
2023-04-07T14:10:36.423Z,13.12
2023-04-07T14:13:04.687Z,13.12
2023-04-07T14:15:34.209Z,13.15
2023-04-07T14:18:02.855Z,13.14
2023-04-07T14:20:31.165Z,13.11
2023-04-07T14:23:00.567Z,13.11
2023-04-07T14:25:29.047Z,13.07
2023-04-07T14:27:58.763Z,13.07
2023-04-07T14:30:27.516Z,13.01
2023-04-07T14:32:56.638Z,12.92
2023-04-07T14:35:26.095Z,12.88
2023-04-07T14:37:55.594Z,12.86
2023-04-07T14:40:24.733Z,12.86
2023-04-07T14:43:06.829Z,12.89
2023-04-07T14:45:35.901Z,12.93
2023-04-07T14:48:05.921Z,12.95
2023-04-07T14:50:34.744Z,13.01
2023-04-07T14:53:03.688Z,13.06
2023-04-07T14:55:32.226Z,13.04
2023-04-07T14:58:00.525Z,13.05
2023-04-07T15:00:29.385Z,13.11
2023-04-07T15:03:16.677Z,13.11
2023-04-07T15:05:45.174Z,13.08
2023-04-07T15:08:14.434Z,13.09
2023-04-07T15:10:42.914Z,13.14
2023-04-07T15:13:11.377Z,13.16
2023-04-07T15:15:39.631Z,13.12
2023-04-07T15:18:08.036Z,13.08
2023-04-07T15:20:36.544Z,13.06
2023-04-07T15:23:05.020Z,13.04
2023-04-07T15:25:33.397Z,13.03
2023-04-07T15:28:01.706Z,13.01
2023-04-07T15:30:34.180Z,12.98
2023-04-07T15:33:04.537Z,12.85
2023-04-07T15:35:33.429Z,12.78
2023-04-07T15:38:02.527Z,12.71
2023-04-07T15:40:31.157Z,12.68
2023-04-07T15:43:00.988Z,12.62
2023-04-07T15:45:30.494Z,12.52
2023-04-07T15:47:58.913Z,12.47
2023-04-07T15:50:30.125Z,12.38
2023-04-07T15:52:59.294Z,12.32
2023-04-07T15:55:27.749Z,12.21
2023-04-07T15:57:56.326Z,12.13
2023-04-07T16:00:24.676Z,12.03
2023-04-07T16:02:56.020Z,11.95
2023-04-07T16:05:24.532Z,11.89
2023-04-07T16:07:52.770Z,11.88
2023-04-07T16:10:23.112Z,11.84
2023-04-07T16:12:52.560Z,11.76
2023-04-07T16:15:36.452Z,11.73
2023-04-07T16:18:10.831Z,11.61
2023-04-07T16:20:41.035Z,11.53
2023-04-07T16:23:10.846Z,11.46
2023-04-07T16:25:39.641Z,11.39
2023-04-07T16:28:07.994Z,11.26
2023-04-07T16:30:37.583Z,11.17
2023-04-07T16:33:17.250Z,11.06
2023-04-07T16:35:45.558Z,10.92
2023-04-07T16:38:14.952Z,10.82
2023-04-07T16:41:00.712Z,10.73
2023-04-07T16:43:36.794Z,10.62
2023-04-07T16:46:06.466Z,10.53
2023-04-07T16:48:35.250Z,10.45
2023-04-07T16:51:03.518Z,10.37
2023-04-07T16:53:32.515Z,10.32
2023-04-07T16:56:04.491Z,10.25
2023-04-07T16:58:33.675Z,10.18
2023-04-07T17:01:02.219Z,10.12
2023-04-07T17:03:32.554Z,10.07
2023-04-07T17:06:05.706Z,10.04
2023-04-07T17:08:38.668Z,10.01
2023-04-07T17:11:09.878Z,9.96
2023-04-07T17:13:40.240Z,9.97
2023-04-07T17:16:14.980Z,9.92
2023-04-07T17:18:45.178Z,9.91
2023-04-07T17:21:15.554Z,9.91
2023-04-07T17:23:48.382Z,9.89
2023-04-07T17:26:16.964Z,9.87
2023-04-07T17:28:46.395Z,9.84
2023-04-07T17:31:14.796Z,9.82
2023-04-07T17:33:43.775Z,9.79
2023-04-07T17:36:12.035Z,9.76
2023-04-07T17:38:40.689Z,9.73
2023-04-07T17:41:09.116Z,9.71
2023-04-07T17:43:37.806Z,9.69
2023-04-07T17:46:06.284Z,9.67
2023-04-07T17:48:34.681Z,9.64
2023-04-07T17:51:03.511Z,9.63
2023-04-07T17:53:32.464Z,9.62
2023-04-07T17:56:01.216Z,9.59
2023-04-07T17:58:30.108Z,9.57
2023-04-07T18:00:58.383Z,9.58
2023-04-07T18:03:27.766Z,9.56
2023-04-07T18:05:56.650Z,9.56
2023-04-07T18:08:26.350Z,9.55
2023-04-07T18:11:07.563Z,9.55
2023-04-07T18:13:36.154Z,9.57
2023-04-07T18:16:09.504Z,9.54
2023-04-07T18:18:43.581Z,9.55
2023-04-07T18:21:11.990Z,9.55
2023-04-07T18:23:40.292Z,9.53
2023-04-07T18:26:09.597Z,9.52
2023-04-07T18:28:38.367Z,9.51
2023-04-07T18:31:08.332Z,9.52
2023-04-07T18:33:38.243Z,9.51
2023-04-07T18:36:08.198Z,9.50
2023-04-07T18:38:39.379Z,9.51
2023-04-07T18:41:08.262Z,9.53
2023-04-07T18:43:36.522Z,9.51
2023-04-07T18:46:04.907Z,9.50
2023-04-07T18:48:34.164Z,9.50
2023-04-07T18:51:03.160Z,9.50
2023-04-07T18:53:31.402Z,9.51
2023-04-07T18:56:00.429Z,9.56
2023-04-07T18:58:29.248Z,9.55
2023-04-07T19:00:58.650Z,9.55
2023-04-07T19:03:27.775Z,9.57
2023-04-07T19:05:56.762Z,9.57
2023-04-07T19:08:25.879Z,9.60
2023-04-07T19:10:54.094Z,9.61
2023-04-07T19:13:22.339Z,9.63
2023-04-07T19:15:51.775Z,9.64
2023-04-07T19:18:22.140Z,9.64
2023-04-07T19:20:50.467Z,9.65
2023-04-07T19:23:19.224Z,9.68
2023-04-07T19:25:48.072Z,9.71
2023-04-07T19:28:21.348Z,9.73
2023-04-07T19:30:49.760Z,9.75
2023-04-07T19:33:18.479Z,9.78
2023-04-07T19:35:50.565Z,9.79
2023-04-07T19:38:19.370Z,9.80
2023-04-07T19:40:47.561Z,9.79
2023-04-07T19:43:17.690Z,9.80
2023-04-07T19:45:51.924Z,9.81
2023-04-07T19:48:20.546Z,9.80
2023-04-07T19:50:51.470Z,9.78
2023-04-07T19:53:26.254Z,9.74
2023-04-07T19:55:56.259Z,9.69
2023-04-07T19:58:25.038Z,9.65
2023-04-07T20:00:55.285Z,9.65
2023-04-07T20:03:24.581Z,9.66
2023-04-07T20:05:53.278Z,9.64
2023-04-07T20:08:21.996Z,9.64
2023-04-07T20:10:52.684Z,9.64
2023-04-07T20:13:24.118Z,9.64
2023-04-07T20:15:53.552Z,9.63
2023-04-07T20:18:21.982Z,9.60
2023-04-07T20:20:58.929Z,9.56
2023-04-07T20:23:27.393Z,9.57
2023-04-07T20:25:55.531Z,9.59
2023-04-07T20:28:24.618Z,9.59
2023-04-07T20:30:53.399Z,9.59
2023-04-07T20:33:21.924Z,9.59
2023-04-07T20:35:50.756Z,9.60
2023-04-07T20:38:19.396Z,9.58
2023-04-07T20:40:54.661Z,9.56
2023-04-07T20:43:24.643Z,9.55
2023-04-07T20:45:53.471Z,9.53
2023-04-07T20:48:24.779Z,9.51
2023-04-07T20:50:53.281Z,9.52
2023-04-07T20:53:25.659Z,9.83
2023-04-07T20:55:54.095Z,10.30
2023-04-07T20:58:23.235Z,10.60
2023-04-07T21:00:59.721Z,10.66
2023-04-07T21:03:29.210Z,10.61
2023-04-07T21:05:57.993Z,10.52
2023-04-07T21:08:30.756Z,10.43
2023-04-07T21:10:59.645Z,10.30
2023-04-07T21:13:29.382Z,10.22
2023-04-07T21:15:59.431Z,10.14
2023-04-07T21:18:28.427Z,10.09
2023-04-07T21:20:57.778Z,10.01
2023-04-07T21:23:31.452Z,9.92
2023-04-07T21:26:01.827Z,9.83
2023-04-07T21:28:34.683Z,9.75
2023-04-07T21:31:04.602Z,9.70
2023-04-07T21:33:34.764Z,9.69
2023-04-07T21:36:06.627Z,9.66
2023-04-07T21:38:35.259Z,9.64
2023-04-07T21:41:04.072Z,9.61
2023-04-07T21:43:34.680Z,9.62
2023-04-07T21:46:04.662Z,9.91
2023-04-07T21:48:34.904Z,10.36
2023-04-07T21:51:03.610Z,10.62
2023-04-07T21:53:33.187Z,10.72
2023-04-07T21:56:01.865Z,10.68
2023-04-07T21:58:31.749Z,10.52
2023-04-07T22:01:00.485Z,10.38
2023-04-07T22:03:29.739Z,10.27
2023-04-07T22:06:02.023Z,10.18
2023-04-07T22:08:30.910Z,10.06
2023-04-07T22:10:59.348Z,9.97
2023-04-07T22:13:27.682Z,9.91
2023-04-07T22:15:56.487Z,9.90
2023-04-07T22:18:24.847Z,9.92
2023-04-07T22:20:53.437Z,10.13
2023-04-07T22:23:21.755Z,10.57
2023-04-07T22:25:52.817Z,10.83
2023-04-07T22:28:22.358Z,10.91
2023-04-07T22:30:50.695Z,10.87
2023-04-07T22:35:24.602Z,10.71
2023-04-07T22:37:52.815Z,10.56
2023-04-07T22:40:21.335Z,10.47
2023-04-07T22:42:49.617Z,10.39
2023-04-07T22:45:20.748Z,10.32
2023-04-07T22:47:49.626Z,10.26
2023-04-07T22:50:18.264Z,10.18
2023-04-07T22:52:47.306Z,10.38
2023-04-07T22:55:15.761Z,10.67
2023-04-07T22:57:45.619Z,10.82
2023-04-07T23:00:14.602Z,10.82
2023-04-07T23:02:43.521Z,10.71
2023-04-07T23:05:12.091Z,10.59
2023-04-07T23:07:40.453Z,10.49
2023-04-07T23:10:11.000Z,10.34
2023-04-07T23:12:41.424Z,10.18
2023-04-07T23:15:10.046Z,10.10
2023-04-07T23:17:40.856Z,9.99
2023-04-07T23:20:10.017Z,10.19
2023-04-07T23:22:38.451Z,10.63
2023-04-07T23:25:07.919Z,10.86
2023-04-07T23:27:36.669Z,10.85
2023-04-07T23:30:06.063Z,10.79
2023-04-07T23:32:35.242Z,10.68
2023-04-07T23:35:03.840Z,10.59
2023-04-07T23:37:34.970Z,10.44
2023-04-07T23:40:03.391Z,10.33
2023-04-07T23:42:32.272Z,10.24
2023-04-07T23:45:01.260Z,10.16
2023-04-07T23:47:29.718Z,10.04
2023-04-07T23:49:58.867Z,10.23
2023-04-07T23:52:27.387Z,10.66
2023-04-07T23:54:56.696Z,10.88
2023-04-07T23:57:25.182Z,10.91
2023-04-07T23:59:53.656Z,10.75
